RPLL/MNL METAR and TAF weather

Enter ICAO airport designator
Station Type Date Time Source
RPLL METAR 2020/07/10 14:00 UTC NOAA

RPLL 101400Z VRB02KT 9999 FEW053 BKN220 28/26 Q1010


Station Type Date Time Source
RPLL Decoded METAR 2020/07/10 14:00 UTC NOAA

Ninoy Aquino Inter-National Airport, Philippines (RPLL) 14-31N 121-00E 15M
Jul 10, 2020 - 10:00 AM EDT / 2020.07.10 1400 UTC
Wind: Variable at 2 MPH (2 KT):0
Visibility: greater than 7 mile(s):0
Sky conditions: mostly cloudy
Temperature: 82 F (28 C)
Dew Point: 78 F (26 C)
Relative Humidity: 88%
Pressure (altimeter): 29.83 in. Hg (1010 hPa)
ob: RPLL 101400Z VRB02KT 9999 FEW053 BKN220 28/26 Q1010
cycle: 14

Station Type Date Time Source
RPLL TAF 2020/07/10 12:03 UTC NOAA

TAF RPLL 101100Z 1012/1118 09006KT 9999 FEW025 BKN300 TX37/1106Z TN27/1021Z
TEMPO 1012/1018 14008KT 8000 -TSRA FEW022CB SCT023 BKN090
TEMPO 1018/1024 VRB03KT FEW023 SCT090

Example: see airport list